KANB

Anniston Regional Airport

Anniston, Alabama, USA
METAR KANB 161353Z AUTO 07003KT 7SM CLR M03/M04 A3032 RMK AO2 SLP281 T10281044
Observed Flight Rules
Dec-16 @ 13:53 UTC (56 minutes ago) Visual Flight Rules
Wind Visibility Clouds
70° at 3 knots 7 miles
  • Clear skies
Temperatures Readings
Current -3°C / 27°F
Dewpoint -4°C / 25°F
Humidity 93%
Altimeter 30.32" Hg
Pressure 1028.1 hPa
Elevation 183
METAR KANB 161353Z AUTO 07003KT 7SM CLR M03/M04 A3032 RMK AO2 SLP281 T10281044
Observed Flight Rules
Dec-16 @ 13:53 UTC
(56 minutes ago)
VFR
Wind Visibility
70° at 3 knots 7 miles
Clouds
  • Clear skies
Temperature Dewpoint
-3°C / 27°F -4°C / 25°F
Humidity Altimeter Pressure
93% 30.32" Hg 1028.1 hPa